createdAt,value
2019-03-04T00:01:38.876Z,8.80
2019-03-04T00:04:07.448Z,8.80
2019-03-04T00:06:36.004Z,8.80
2019-03-04T00:09:06.176Z,8.80
2019-03-04T00:11:34.721Z,8.80
2019-03-04T00:14:03.506Z,8.80
2019-03-04T00:16:32.102Z,8.80
2019-03-04T00:19:00.641Z,8.80
2019-03-04T00:21:31.396Z,8.80
2019-03-04T00:24:00.561Z,8.80
2019-03-04T00:26:29.155Z,8.80
2019-03-04T00:28:57.702Z,8.80
2019-03-04T00:31:26.325Z,8.80
2019-03-04T00:33:54.989Z,8.80
2019-03-04T00:36:23.542Z,8.80
2019-03-04T00:38:52.106Z,8.80
2019-03-04T00:41:20.686Z,8.80
2019-03-04T00:43:49.284Z,8.90
2019-03-04T00:46:17.832Z,8.90
2019-03-04T00:48:46.386Z,8.90
2019-03-04T00:51:14.987Z,8.90
2019-03-04T00:53:43.577Z,8.80
2019-03-04T00:56:13.205Z,8.80
2019-03-04T00:58:41.767Z,8.80
2019-03-04T01:01:12.880Z,8.80
2019-03-04T01:03:41.510Z,8.80
2019-03-04T01:06:10.111Z,8.80
2019-03-04T01:08:38.734Z,8.80
2019-03-04T01:11:07.217Z,8.80
2019-03-04T01:13:35.883Z,8.80
2019-03-04T01:16:04.514Z,8.80
2019-03-04T01:18:33.202Z,8.90
2019-03-04T01:21:01.771Z,8.90
2019-03-04T01:23:30.320Z,8.90
2019-03-04T01:25:58.917Z,8.90
2019-03-04T01:28:29.899Z,8.80
2019-03-04T01:30:58.455Z,8.80
2019-03-04T01:33:28.569Z,8.80
2019-03-04T01:35:57.166Z,8.80
2019-03-04T01:38:26.982Z,8.80
2019-03-04T01:40:55.532Z,8.80
2019-03-04T01:43:24.106Z,8.90
2019-03-04T01:45:53.230Z,8.90
2019-03-04T01:48:24.716Z,8.90
2019-03-04T01:50:53.230Z,8.90
2019-03-04T01:53:21.786Z,8.90
2019-03-04T01:55:51.447Z,8.90
2019-03-04T01:58:19.952Z,8.90
2019-03-04T02:00:48.490Z,8.90
2019-03-04T02:03:17.089Z,8.90
2019-03-04T02:05:45.868Z,8.90
2019-03-04T02:08:14.491Z,8.90
2019-03-04T02:10:43.042Z,8.90
2019-03-04T02:13:11.636Z,8.90
2019-03-04T02:15:40.194Z,8.90
2019-03-04T02:18:09.303Z,8.90
2019-03-04T02:20:37.892Z,8.80
2019-03-04T02:23:07.818Z,8.90
2019-03-04T02:25:42.312Z,8.90
2019-03-04T02:28:10.854Z,8.80
2019-03-04T02:30:39.607Z,8.80
2019-03-04T02:33:09.251Z,8.80
2019-03-04T02:35:41.147Z,8.90
2019-03-04T02:38:09.707Z,8.90
2019-03-04T02:40:38.274Z,8.90
2019-03-04T02:43:06.852Z,8.90
2019-03-04T02:45:35.412Z,8.90
2019-03-04T02:48:03.966Z,8.90
2019-03-04T02:50:32.587Z,9.00
2019-03-04T02:53:01.121Z,8.90
2019-03-04T02:55:29.690Z,9.00
2019-03-04T02:57:58.240Z,9.00
2019-03-04T03:00:26.817Z,8.90
2019-03-04T03:02:55.370Z,8.90
2019-03-04T03:05:23.922Z,8.90
2019-03-04T03:07:52.489Z,9.00
2019-03-04T03:10:21.038Z,9.00
2019-03-04T03:12:50.157Z,9.00
2019-03-04T03:15:20.448Z,8.90
2019-03-04T03:17:48.982Z,8.90
2019-03-04T03:20:26.548Z,9.00
2019-03-04T03:22:55.109Z,8.90
2019-03-04T03:25:23.684Z,9.00
2019-03-04T03:27:52.236Z,9.00
2019-03-04T03:30:22.314Z,9.00
2019-03-04T03:32:50.898Z,9.00
2019-03-04T03:35:19.618Z,9.00
2019-03-04T03:37:48.177Z,9.10
2019-03-04T03:40:18.181Z,9.10
2019-03-04T03:42:46.830Z,9.10
2019-03-04T03:45:15.602Z,9.10
2019-03-04T03:47:44.231Z,9.10
2019-03-04T03:50:18.944Z,9.10
2019-03-04T03:52:47.575Z,9.10
2019-03-04T03:55:16.873Z,9.10
2019-03-04T03:57:45.514Z,9.10
2019-03-04T04:00:25.137Z,9.10
2019-03-04T04:02:53.749Z,9.10
2019-03-04T04:05:22.369Z,9.10
2019-03-04T04:07:52.448Z,9.10
2019-03-04T04:10:22.641Z,9.10
2019-03-04T04:12:51.297Z,9.20
2019-03-04T04:15:20.553Z,9.20
2019-03-04T04:17:49.214Z,9.20
2019-03-04T04:20:17.873Z,9.20
2019-03-04T04:22:46.426Z,9.10
2019-03-04T04:25:15.321Z,9.10
2019-03-04T04:27:43.879Z,9.20
2019-03-04T04:30:30.099Z,9.20
2019-03-04T04:32:58.725Z,9.20
2019-03-04T04:35:27.277Z,9.20
2019-03-04T04:37:55.786Z,9.20
2019-03-04T04:40:24.704Z,9.20
2019-03-04T04:42:53.298Z,9.20
2019-03-04T04:45:21.895Z,9.20
2019-03-04T04:47:50.456Z,9.20
2019-03-04T04:50:27.142Z,9.20
2019-03-04T04:52:55.720Z,9.20
2019-03-04T04:55:24.346Z,9.20
2019-03-04T04:57:53.432Z,9.20
2019-03-04T05:00:22.164Z,9.20
2019-03-04T05:02:50.770Z,9.20
2019-03-04T05:05:19.363Z,9.20
2019-03-04T05:07:49.864Z,9.30
2019-03-04T05:10:22.580Z,9.30
2019-03-04T05:12:51.141Z,9.30
2019-03-04T05:15:19.803Z,9.30
2019-03-04T05:17:48.365Z,9.30
2019-03-04T05:20:25.244Z,9.30
2019-03-04T05:22:53.880Z,9.30
2019-03-04T05:25:22.499Z,9.30
2019-03-04T05:27:51.049Z,9.30
2019-03-04T05:30:20.697Z,9.40
2019-03-04T05:32:49.241Z,9.40
2019-03-04T05:35:19.537Z,9.40
2019-03-04T05:37:49.627Z,9.40
2019-03-04T05:40:19.412Z,9.40
2019-03-04T05:42:48.088Z,9.40
2019-03-04T05:45:17.830Z,9.40
2019-03-04T05:47:46.471Z,9.40
2019-03-04T05:50:18.555Z,9.40
2019-03-04T05:52:47.282Z,9.40
2019-03-04T05:55:16.068Z,9.40
2019-03-04T05:57:47.905Z,9.40
2019-03-04T06:00:20.690Z,9.40
2019-03-04T06:02:50.496Z,9.50
2019-03-04T06:05:20.575Z,9.50
2019-03-04T06:07:53.515Z,9.50
2019-03-04T06:10:22.134Z,9.50
2019-03-04T06:12:50.673Z,9.50
2019-03-04T06:15:20.671Z,9.50
2019-03-04T06:17:49.322Z,9.60
2019-03-04T06:20:19.303Z,9.60
2019-03-04T06:22:48.091Z,9.60
2019-03-04T06:25:21.861Z,9.60
2019-03-04T06:27:50.487Z,9.60
2019-03-04T06:30:24.123Z,9.60
2019-03-04T06:32:52.655Z,9.60
2019-03-04T06:35:22.326Z,9.60
2019-03-04T06:37:50.947Z,9.60
2019-03-04T06:40:20.425Z,9.60
2019-03-04T06:42:49.871Z,9.60
2019-03-04T06:45:21.427Z,9.60
2019-03-04T06:47:50.136Z,9.70
2019-03-04T06:50:41.250Z,9.70
2019-03-04T06:53:09.795Z,9.70
2019-03-04T06:55:51.150Z,9.70
2019-03-04T06:58:19.742Z,9.80
2019-03-04T07:00:50.732Z,9.80
2019-03-04T07:03:20.686Z,9.80
2019-03-04T07:05:53.190Z,9.80
2019-03-04T07:08:30.587Z,9.90
2019-03-04T07:11:01.778Z,9.90
2019-03-04T07:13:30.826Z,9.90
2019-03-04T07:15:59.402Z,10.00
2019-03-04T07:18:27.951Z,10.00
2019-03-04T07:20:56.509Z,10.00
2019-03-04T07:23:27.467Z,10.00
2019-03-04T07:25:57.067Z,10.10
2019-03-04T07:28:25.615Z,10.10
2019-03-04T07:30:54.451Z,10.10
2019-03-04T07:33:22.991Z,10.10
2019-03-04T07:35:51.557Z,10.20
2019-03-04T07:38:26.300Z,10.20
2019-03-04T07:40:55.045Z,10.20
2019-03-04T07:43:27.256Z,10.20
2019-03-04T07:45:55.896Z,10.30
2019-03-04T07:48:25.728Z,10.30
2019-03-04T07:50:55.263Z,10.40
2019-03-04T07:53:23.826Z,10.40
2019-03-04T07:55:52.541Z,10.50
2019-03-04T07:58:21.158Z,10.50
2019-03-04T08:00:49.731Z,10.60
2019-03-04T08:03:18.317Z,10.70
2019-03-04T08:05:46.868Z,10.80
2019-03-04T08:08:16.032Z,10.80
2019-03-04T08:10:56.569Z,10.80
2019-03-04T08:13:37.108Z,10.90
2019-03-04T08:16:06.066Z,10.90
2019-03-04T08:18:34.604Z,11.00
2019-03-04T08:21:03.163Z,11.10
2019-03-04T08:23:32.876Z,11.20
2019-03-04T08:26:01.568Z,11.20
2019-03-04T08:28:31.309Z,11.30
2019-03-04T08:30:59.928Z,11.50
2019-03-04T08:33:28.476Z,11.60
2019-03-04T08:35:57.082Z,11.60
2019-03-04T08:38:26.682Z,11.70
2019-03-04T08:40:57.829Z,11.80
2019-03-04T08:43:27.520Z,11.90
2019-03-04T08:45:56.042Z,12.00
2019-03-04T08:48:28.472Z,12.10
2019-03-04T08:50:56.994Z,12.20
2019-03-04T08:53:26.162Z,12.10
2019-03-04T08:55:54.731Z,12.20
2019-03-04T08:58:23.391Z,12.30
2019-03-04T09:00:52.004Z,12.30
2019-03-04T09:03:20.640Z,12.40
2019-03-04T09:05:49.278Z,12.40
2019-03-04T09:08:17.846Z,12.40
2019-03-04T09:10:46.446Z,12.40
2019-03-04T09:13:14.959Z,12.40
2019-03-04T09:15:43.558Z,12.50
2019-03-04T09:18:12.250Z,12.60
2019-03-04T09:20:40.990Z,12.70
2019-03-04T09:23:09.549Z,12.70
2019-03-04T09:25:44.075Z,12.90
2019-03-04T09:28:13.826Z,13.00
2019-03-04T09:30:42.389Z,13.10
2019-03-04T09:33:10.964Z,13.10
2019-03-04T09:35:39.559Z,13.10
2019-03-04T09:38:08.112Z,13.30
2019-03-04T09:40:36.777Z,13.30
2019-03-04T09:43:06.783Z,13.40
2019-03-04T09:45:38.757Z,13.50
2019-03-04T09:48:05.830Z,13.50
2019-03-04T09:50:34.418Z,13.70
2019-03-04T09:53:02.989Z,13.70
2019-03-04T09:55:31.611Z,13.70
2019-03-04T09:58:00.249Z,13.70
2019-03-04T10:00:33.596Z,13.80
2019-03-04T10:03:27.575Z,13.80
2019-03-04T10:06:14.229Z,13.90
2019-03-04T10:08:57.257Z,14.00
2019-03-04T10:11:47.673Z,14.00
2019-03-04T10:14:34.382Z,14.00
2019-03-04T10:17:27.869Z,14.20
2019-03-04T10:20:08.368Z,14.30
2019-03-04T10:22:39.991Z,14.50
2019-03-04T10:25:17.567Z,14.70
2019-03-04T10:28:01.136Z,14.90
2019-03-04T10:30:35.311Z,15.10
2019-03-04T10:33:21.817Z,15.30
2019-03-04T10:36:12.229Z,15.30
2019-03-04T10:39:03.910Z,15.30
2019-03-04T10:41:38.515Z,15.20
2019-03-04T10:44:37.914Z,15.30
2019-03-04T10:47:05.940Z,15.40
2019-03-04T10:49:35.731Z,15.40
2019-03-04T10:52:04.531Z,15.40
2019-03-04T10:54:33.167Z,15.30
2019-03-04T10:57:01.771Z,15.20
2019-03-04T10:59:30.339Z,15.30
2019-03-04T11:01:58.955Z,15.20
2019-03-04T11:04:27.511Z,15.30
2019-03-04T11:06:56.121Z,15.30
2019-03-04T11:09:24.698Z,15.40
2019-03-04T11:11:54.353Z,15.30
2019-03-04T11:14:23.024Z,15.20
2019-03-04T11:16:51.567Z,15.40
2019-03-04T11:19:20.131Z,15.70
2019-03-04T11:21:48.827Z,15.80
2019-03-04T11:24:17.549Z,15.70
2019-03-04T11:26:46.377Z,15.90
2019-03-04T11:29:15.082Z,15.80
2019-03-04T11:31:43.727Z,16.20
2019-03-04T11:34:12.364Z,16.10
2019-03-04T11:36:41.007Z,16.10
2019-03-04T11:39:22.924Z,16.30
2019-03-04T11:41:51.479Z,16.20
2019-03-04T11:44:24.827Z,16.10
2019-03-04T11:46:53.821Z,16.00
2019-03-04T11:49:22.367Z,15.80
2019-03-04T11:51:51.023Z,15.70
2019-03-04T11:54:19.605Z,15.70
2019-03-04T11:56:48.757Z,15.70
2019-03-04T11:59:17.359Z,15.50
2019-03-04T12:01:47.565Z,15.50
2019-03-04T12:04:16.187Z,15.50
2019-03-04T12:06:44.751Z,15.50
2019-03-04T12:09:16.264Z,15.50
2019-03-04T12:11:44.840Z,15.50
2019-03-04T12:14:13.387Z,15.60
2019-03-04T12:16:47.525Z,15.60
2019-03-04T12:19:16.085Z,15.70
2019-03-04T12:21:46.242Z,15.70
2019-03-04T12:24:14.819Z,15.50
2019-03-04T12:26:43.717Z,15.40
2019-03-04T12:29:12.299Z,15.30
2019-03-04T12:31:42.495Z,15.30
2019-03-04T12:34:12.774Z,15.20
2019-03-04T12:36:41.389Z,15.20
2019-03-04T12:39:11.111Z,15.20
2019-03-04T12:41:39.617Z,15.30
2019-03-04T12:52:26.398Z,15.60
2019-03-04T12:54:55.088Z,15.50
2019-03-04T12:57:23.629Z,15.60
2019-03-04T12:59:52.435Z,15.60
2019-03-04T13:02:21.095Z,15.60
2019-03-04T13:04:49.893Z,15.60
2019-03-04T13:07:18.573Z,15.60
2019-03-04T13:09:47.217Z,15.70
2019-03-04T13:12:16.052Z,15.70
2019-03-04T13:14:44.701Z,15.70
2019-03-04T13:17:13.331Z,15.70
2019-03-04T13:19:41.978Z,15.70
2019-03-04T13:22:10.527Z,15.60
2019-03-04T13:24:39.113Z,15.70
2019-03-04T13:27:07.673Z,15.70
2019-03-04T13:29:36.230Z,15.70
2019-03-04T13:32:11.838Z,15.70
2019-03-04T13:48:36.797Z,15.70
2019-03-04T13:51:05.818Z,15.70
2019-03-04T13:53:34.392Z,15.80
2019-03-04T13:56:02.978Z,15.80
2019-03-04T13:58:31.562Z,15.80
2019-03-04T14:01:00.132Z,15.80
2019-03-04T14:03:28.789Z,15.80
2019-03-04T14:05:57.355Z,15.80
2019-03-04T14:08:25.956Z,15.90
2019-03-04T14:10:54.602Z,15.90
2019-03-04T14:13:23.220Z,15.90
2019-03-04T14:15:54.260Z,15.90
2019-03-04T14:18:25.135Z,15.80
2019-03-04T14:20:53.781Z,15.80
2019-03-04T14:23:22.332Z,15.80
2019-03-04T14:25:51.270Z,15.80
2019-03-04T14:28:21.428Z,15.80
2019-03-04T14:30:49.986Z,15.80
2019-03-04T14:33:18.621Z,15.80
2019-03-04T14:35:47.112Z,15.80
2019-03-04T14:38:15.690Z,15.80
2019-03-04T14:40:44.238Z,15.70
2019-03-04T14:43:15.885Z,15.70
2019-03-04T14:45:44.434Z,15.80
2019-03-04T14:48:13.074Z,15.80
2019-03-04T14:50:41.651Z,15.80
2019-03-04T14:53:10.203Z,15.80
2019-03-04T14:55:40.594Z,15.80
2019-03-04T14:58:09.306Z,15.80
2019-03-04T15:00:44.082Z,15.80
2019-03-04T15:03:20.941Z,15.80
2019-03-04T15:05:43.128Z,15.80
2019-03-04T15:08:11.686Z,15.70
2019-03-04T15:10:40.295Z,15.70
2019-03-04T15:13:13.052Z,15.70
2019-03-04T15:15:41.642Z,15.70
2019-03-04T15:18:10.351Z,15.60
2019-03-04T15:20:39.402Z,15.60
2019-03-04T15:23:11.244Z,15.70
2019-03-04T15:25:45.488Z,15.70
2019-03-04T15:28:24.254Z,15.60
2019-03-04T15:30:59.579Z,15.60
2019-03-04T15:33:28.745Z,15.60
2019-03-04T15:35:58.112Z,15.50
2019-03-04T15:38:28.319Z,15.60
2019-03-04T15:40:57.907Z,15.50
2019-03-04T15:43:26.719Z,15.50
2019-03-04T15:45:58.186Z,15.50
2019-03-04T15:48:30.049Z,15.50
2019-03-04T15:50:58.595Z,15.50
2019-03-04T15:53:27.150Z,15.50
2019-03-04T15:55:59.265Z,15.60
2019-03-04T15:58:32.098Z,15.60
2019-03-04T16:01:08.537Z,15.50
2019-03-04T16:03:37.130Z,15.60
2019-03-04T16:06:05.888Z,15.60
2019-03-04T16:08:34.474Z,15.50
2019-03-04T16:11:06.831Z,15.50
2019-03-04T16:13:36.445Z,15.50
2019-03-04T16:16:08.146Z,15.50
2019-03-04T16:18:37.287Z,15.50
2019-03-04T16:21:05.929Z,15.50
2019-03-04T16:23:42.138Z,15.50
2019-03-04T16:26:11.779Z,15.40
2019-03-04T16:28:44.707Z,15.40
2019-03-04T16:31:16.587Z,15.40
2019-03-04T16:33:46.861Z,15.40
2019-03-04T16:36:19.990Z,15.30
2019-03-04T16:38:53.153Z,15.30
2019-03-04T16:41:26.175Z,15.30
2019-03-04T16:43:54.727Z,15.20
2019-03-04T16:46:23.303Z,15.20
2019-03-04T16:48:51.937Z,15.20
2019-03-04T16:51:22.067Z,15.10
2019-03-04T16:53:54.756Z,15.10
2019-03-04T16:56:25.720Z,15.00
2019-03-04T16:58:58.451Z,15.00
2019-03-04T17:01:27.628Z,15.00
2019-03-04T17:03:56.305Z,14.90
2019-03-04T17:06:26.377Z,14.90
2019-03-04T17:08:55.071Z,14.90
2019-03-04T17:11:25.641Z,14.90
2019-03-04T17:13:53.967Z,14.90
2019-03-04T17:16:23.904Z,14.80
2019-03-04T17:18:52.548Z,14.80
2019-03-04T17:21:28.487Z,14.70
2019-03-04T17:23:57.121Z,14.70
2019-03-04T17:26:33.284Z,14.80
2019-03-04T17:29:07.464Z,14.70
2019-03-04T17:31:52.038Z,14.70
2019-03-04T17:34:26.291Z,14.70
2019-03-04T17:37:03.655Z,14.70
2019-03-04T17:39:34.975Z,14.70
2019-03-04T17:42:05.005Z,14.70
2019-03-04T17:44:34.451Z,14.60
2019-03-04T17:47:03.019Z,14.60
2019-03-04T17:49:31.647Z,14.60
2019-03-04T17:52:00.279Z,14.60
2019-03-04T17:54:31.199Z,14.60
2019-03-04T17:56:59.819Z,14.60
2019-03-04T17:59:28.408Z,14.60
2019-03-04T18:01:57.042Z,14.60
2019-03-04T18:04:25.601Z,14.70
2019-03-04T18:06:56.241Z,14.70
2019-03-04T18:09:25.871Z,14.70
2019-03-04T18:11:54.455Z,14.70
2019-03-04T18:14:23.088Z,14.70
2019-03-04T18:16:54.085Z,14.70
2019-03-04T18:19:23.228Z,14.70
2019-03-04T18:22:05.522Z,14.70
2019-03-04T18:24:37.855Z,14.70
2019-03-04T18:27:23.114Z,14.70
2019-03-04T18:29:56.380Z,14.70
2019-03-04T18:32:43.306Z,14.80
2019-03-04T18:35:23.974Z,14.80
2019-03-04T18:38:04.079Z,14.80
2019-03-04T18:40:44.230Z,14.80
2019-03-04T18:43:24.376Z,14.80
2019-03-04T18:46:01.829Z,14.90
2019-03-04T18:48:55.776Z,14.90
2019-03-04T18:51:24.675Z,14.90
2019-03-04T18:53:54.829Z,14.90
2019-03-04T18:56:23.455Z,15.00
2019-03-04T18:58:52.084Z,15.00
2019-03-04T19:01:21.037Z,15.10
2019-03-04T19:03:49.618Z,15.10
2019-03-04T19:06:18.451Z,15.10
2019-03-04T19:08:47.560Z,15.10
2019-03-04T19:11:16.058Z,15.10
2019-03-04T19:13:46.432Z,15.10
2019-03-04T19:16:36.605Z,15.10
2019-03-04T19:19:06.563Z,15.10
2019-03-04T19:21:35.120Z,15.10
2019-03-04T19:24:03.856Z,15.10
2019-03-04T19:26:33.641Z,15.10
2019-03-04T19:29:02.237Z,15.10
2019-03-04T19:31:31.279Z,15.10
2019-03-04T19:34:01.075Z,15.10
2019-03-04T19:36:29.646Z,15.10
2019-03-04T19:39:02.124Z,15.10
2019-03-04T19:41:30.749Z,15.00
2019-03-04T19:44:00.995Z,15.00
2019-03-04T19:46:31.438Z,15.00
2019-03-04T19:49:01.189Z,15.00
2019-03-04T19:51:31.521Z,15.00
2019-03-04T19:54:05.956Z,15.00
2019-03-04T19:56:36.983Z,14.90
2019-03-04T19:59:08.757Z,14.90
2019-03-04T20:01:41.557Z,14.90
2019-03-04T20:04:10.068Z,14.80
2019-03-04T20:06:39.832Z,14.80
2019-03-04T20:09:09.031Z,14.70
2019-03-04T20:11:41.093Z,14.70
2019-03-04T20:14:11.368Z,14.70
2019-03-04T20:16:41.453Z,14.70
2019-03-04T20:19:12.627Z,14.70
2019-03-04T20:21:41.892Z,14.70
2019-03-04T20:24:11.466Z,14.70
2019-03-04T20:26:41.762Z,14.60
2019-03-04T20:29:10.406Z,14.70
2019-03-04T20:31:46.445Z,14.60
2019-03-04T20:34:16.681Z,14.60
2019-03-04T20:36:45.510Z,14.60
2019-03-04T20:39:15.001Z,14.50
2019-03-04T20:41:43.871Z,14.50
2019-03-04T20:44:14.397Z,14.40
2019-03-04T20:46:43.114Z,14.40
2019-03-04T20:49:11.674Z,14.30
2019-03-04T20:51:40.242Z,14.30
2019-03-04T20:54:11.710Z,14.30
2019-03-04T20:56:45.441Z,14.30
2019-03-04T20:59:14.102Z,14.30
2019-03-04T21:01:45.387Z,14.30
2019-03-04T21:04:14.503Z,14.30
2019-03-04T21:06:46.727Z,14.30
2019-03-04T21:09:19.547Z,14.30
2019-03-04T21:11:50.059Z,14.30
2019-03-04T21:14:18.705Z,14.30
2019-03-04T21:17:01.414Z,14.30
2019-03-04T21:19:30.718Z,14.10
2019-03-04T21:22:03.600Z,14.10
2019-03-04T21:24:32.592Z,14.00
2019-03-04T21:27:08.057Z,14.00
2019-03-04T21:29:37.144Z,14.00
2019-03-04T21:32:25.774Z,13.90
2019-03-04T21:35:07.418Z,13.90
2019-03-04T21:37:38.564Z,13.80
2019-03-04T21:40:17.932Z,13.80
2019-03-04T21:42:53.090Z,13.80
2019-03-04T21:45:52.435Z,13.70
2019-03-04T21:48:27.086Z,13.60
2019-03-04T21:51:14.196Z,13.50
2019-03-04T21:53:49.907Z,13.50
2019-03-04T21:56:33.334Z,13.50
2019-03-04T21:59:13.635Z,13.50
2019-03-04T22:02:02.664Z,13.40
2019-03-04T22:04:31.381Z,13.40
2019-03-04T22:07:05.268Z,13.40
2019-03-04T22:09:36.766Z,13.40
2019-03-04T22:12:08.404Z,13.40
2019-03-04T22:14:38.632Z,13.50
2019-03-04T22:17:09.059Z,13.50
2019-03-04T22:19:43.462Z,13.50
2019-03-04T22:22:22.643Z,13.50
2019-03-04T22:24:55.355Z,13.50
2019-03-04T22:27:26.561Z,13.50
2019-03-04T22:29:58.827Z,13.40
2019-03-04T22:32:42.572Z,13.40
2019-03-04T22:35:17.547Z,13.40
2019-03-04T22:37:47.484Z,13.20
2019-03-04T22:40:23.174Z,13.10
2019-03-04T22:42:53.026Z,13.10
2019-03-04T22:45:26.361Z,13.00
2019-03-04T22:48:00.104Z,12.90
2019-03-04T22:50:34.394Z,12.80
2019-03-04T22:53:06.717Z,12.80
2019-03-04T23:01:32.677Z,12.70
2019-03-04T23:13:25.014Z,12.40
2019-03-04T23:18:53.511Z,12.20
2019-03-04T23:21:23.146Z,12.10
2019-03-04T23:23:53.151Z,12.00
2019-03-04T23:26:25.472Z,12.00
2019-03-04T23:28:57.324Z,11.80
2019-03-04T23:31:31.122Z,11.60
2019-03-04T23:34:05.659Z,11.50
2019-03-04T23:36:37.898Z,11.40
2019-03-04T23:39:13.184Z,11.30
2019-03-04T23:41:44.787Z,11.10
2019-03-04T23:44:16.316Z,11.00
2019-03-04T23:46:56.404Z,10.80
2019-03-04T23:49:16.562Z,10.80
2019-03-04T23:51:45.134Z,10.60
2019-03-04T23:54:47.628Z,10.50
2019-03-04T23:57:18.416Z,10.40
2019-03-04T23:59:46.949Z,10.30
